KBVO

Bartlesville Municipal Airport

Bartlesville, Oklahoma, USA
METAR KBVO 170253Z AUTO 00000KT 10SM CLR 05/03 A3032 RMK AO2 SLP265 T00500033 51010
Observed Flight Rules
Oct-17 @ 02:53 UTC (17 minutes ago) Visual Flight Rules
Visibility Clouds
10 miles
  • Clear skies
Temperatures Readings
Current 5°C / 41°F
Dewpoint 3°C / 37°F
Humidity 87%
Altimeter 30.32" Hg
Pressure 1026.5 hPa
Elevation 210
METAR KBVO 170253Z AUTO 00000KT 10SM CLR 05/03 A3032 RMK AO2 SLP265 T00500033 51010
Observed Flight Rules
Oct-17 @ 02:53 UTC
(17 minutes ago)
VFR
Clouds
  • Clear skies
Temperature Dewpoint
5°C / 41°F 3°C / 37°F
Humidity Altimeter Pressure
87% 30.32" Hg 1026.5 hPa